createdAt,value
2022-08-12T00:00:37.165Z,24.88
2022-08-12T00:03:23.461Z,30.15
2022-08-12T00:06:10.470Z,28.83
2022-08-12T00:08:57.640Z,26.02
2022-08-12T00:11:45.764Z,25.63
2022-08-12T00:14:32.729Z,28.45
2022-08-12T00:17:18.881Z,23.55
2022-08-12T00:20:05.634Z,22.67
2022-08-12T00:22:52.927Z,23.80
2022-08-12T00:26:23.156Z,21.33
2022-08-12T00:29:14.002Z,23.13
2022-08-12T00:32:01.245Z,26.15
2022-08-12T00:34:50.057Z,27.60
2022-08-12T00:37:40.153Z,24.60
2022-08-12T00:40:32.293Z,20.85
2022-08-12T00:43:00.061Z,19.13
2022-08-12T00:45:47.590Z,14.80
2022-08-12T00:48:16.233Z,13.63
2022-08-12T00:50:45.425Z,21.23
2022-08-12T00:53:13.816Z,81.07
2022-08-12T00:55:45.160Z,40.28
2022-08-12T00:58:17.785Z,34.85
2022-08-12T01:00:45.279Z,42.30
2022-08-12T01:03:18.669Z,30.08
2022-08-12T01:06:07.443Z,24.90
2022-08-12T01:08:53.546Z,23.10
2022-08-12T01:11:31.848Z,23.08
2022-08-12T01:14:02.140Z,24.23
2022-08-12T01:16:29.891Z,25.33
2022-08-12T01:18:58.493Z,62.97
2022-08-12T01:21:28.395Z,41.28
2022-08-12T01:24:30.812Z,35.95
2022-08-12T01:27:01.480Z,66.68
2022-08-12T01:29:32.962Z,19.67
2022-08-12T01:32:08.818Z,20.33
2022-08-12T01:34:39.744Z,22.35
2022-08-12T01:37:09.745Z,21.25
2022-08-12T01:40:31.720Z,19.25
2022-08-12T01:42:49.780Z,25.02
2022-08-12T01:45:24.671Z,20.48
2022-08-12T01:48:24.014Z,19.73
2022-08-12T01:51:06.077Z,22.00
2022-08-12T01:54:01.358Z,23.50
2022-08-12T01:56:32.341Z,24.27
2022-08-12T01:59:21.456Z,22.65
2022-08-12T02:01:54.090Z,22.80
2022-08-12T02:05:18.432Z,23.17
2022-08-12T02:08:44.540Z,25.08
2022-08-12T02:11:35.008Z,22.80
2022-08-12T02:14:24.884Z,25.48
2022-08-12T02:17:55.267Z,23.13
2022-08-12T02:20:35.279Z,26.35
2022-08-12T02:23:20.774Z,26.63
2022-08-12T02:25:50.356Z,31.67
2022-08-12T02:28:17.677Z,54.37
2022-08-12T02:30:45.725Z,69.50
2022-08-12T02:33:14.065Z,126.10
2022-08-12T02:35:41.411Z,72.35
2022-08-12T02:38:12.837Z,58.25
2022-08-12T02:40:45.488Z,164.88
2022-08-12T02:43:45.536Z,92.07
2022-08-12T02:46:18.301Z,101.85
2022-08-12T02:48:53.078Z,179.18
2022-08-12T02:51:29.419Z,115.00
2022-08-12T02:54:05.648Z,279.00
2022-08-12T02:56:40.795Z,454.33
2022-08-12T02:59:12.437Z,352.77
2022-08-12T03:01:56.049Z,70.85
2022-08-12T03:04:44.562Z,103.75
2022-08-12T03:07:56.209Z,87.53
2022-08-12T03:10:25.123Z,65.90
2022-08-12T03:13:08.325Z,468.42
2022-08-12T03:18:27.232Z,476.85
2022-08-12T03:20:58.572Z,445.85
2022-08-12T03:23:29.548Z,498.30
2022-08-12T03:26:02.393Z,580.17
2022-08-12T03:28:54.406Z,256.67
2022-08-12T03:31:30.210Z,290.58
2022-08-12T03:34:12.728Z,271.23
2022-08-12T03:36:42.922Z,184.57
2022-08-12T03:39:18.257Z,179.55
2022-08-12T03:42:28.207Z,149.20
2022-08-12T03:45:53.414Z,367.25
2022-08-12T03:48:43.991Z,284.05
2022-08-12T03:51:30.500Z,149.52
2022-08-12T03:54:17.174Z,338.13
2022-08-12T03:57:03.246Z,374.05
2022-08-12T03:59:48.966Z,331.45
2022-08-12T04:02:17.302Z,178.93
2022-08-12T04:04:45.719Z,117.80
2022-08-12T04:07:17.664Z,252.35
2022-08-12T04:09:47.128Z,221.50
2022-08-12T04:12:33.557Z,101.40
2022-08-12T04:15:02.212Z,135.80
2022-08-12T04:17:30.357Z,310.42
2022-08-12T04:19:58.952Z,131.85
2022-08-12T04:22:30.532Z,218.57
2022-08-12T04:25:02.433Z,185.27
2022-08-12T04:27:31.869Z,106.10
2022-08-12T04:30:21.291Z,100.57
2022-08-12T04:32:52.320Z,129.70
2022-08-12T04:35:21.794Z,165.82
2022-08-12T04:38:00.660Z,133.98
2022-08-12T04:40:32.874Z,125.93
2022-08-12T04:43:01.848Z,157.25
2022-08-12T04:45:31.158Z,132.30
2022-08-12T04:47:59.214Z,116.22
2022-08-12T04:50:34.831Z,128.20
2022-08-12T04:53:09.102Z,115.38
2022-08-12T04:55:39.220Z,56.00
2022-08-12T04:58:08.587Z,100.68
2022-08-12T05:00:38.191Z,38.28
2022-08-12T05:03:07.483Z,30.58
2022-08-12T05:05:37.938Z,25.50
2022-08-12T05:08:11.748Z,30.13
2022-08-12T05:10:39.334Z,23.02
2022-08-12T05:13:11.604Z,24.08
2022-08-12T05:16:00.256Z,25.92
2022-08-12T05:18:29.219Z,20.67
2022-08-12T05:20:59.379Z,30.00
2022-08-12T05:23:27.544Z,15.52
2022-08-12T05:25:57.206Z,14.13
2022-08-12T05:28:27.240Z,16.90
2022-08-12T05:30:56.365Z,15.43
2022-08-12T05:33:26.738Z,13.63
2022-08-12T05:35:54.272Z,14.40
2022-08-12T05:38:40.374Z,16.55
2022-08-12T05:41:19.174Z,19.58
2022-08-12T05:43:53.717Z,17.83
2022-08-12T05:46:23.372Z,16.98
2022-08-12T05:48:54.552Z,16.97
2022-08-12T05:51:39.800Z,17.92
2022-08-12T05:54:09.121Z,17.13
2022-08-12T05:56:37.286Z,16.38
2022-08-12T05:59:09.465Z,20.60
2022-08-12T06:02:08.955Z,19.63
2022-08-12T06:04:24.483Z,17.90
2022-08-12T06:06:53.618Z,17.98
2022-08-12T06:09:22.699Z,14.25
2022-08-12T06:12:05.152Z,14.40
2022-08-12T06:14:37.773Z,13.60
2022-08-12T06:17:07.944Z,13.23
2022-08-12T06:20:27.468Z,12.80
2022-08-12T06:22:23.354Z,12.80
2022-08-12T06:24:53.018Z,15.18
2022-08-12T06:27:21.659Z,13.60
2022-08-12T06:30:08.583Z,13.25
2022-08-12T06:32:42.884Z,12.90
2022-08-12T06:35:26.330Z,13.82
2022-08-12T06:38:21.488Z,14.73
2022-08-12T06:44:06.198Z,12.52
2022-08-12T06:46:29.542Z,14.98
2022-08-12T06:48:59.305Z,17.05
2022-08-12T06:51:30.291Z,14.15
2022-08-12T06:54:02.139Z,12.70
2022-08-12T06:57:00.140Z,13.18
2022-08-12T06:59:21.495Z,10.73
2022-08-12T07:01:50.973Z,10.60
2022-08-12T07:04:37.830Z,10.93
2022-08-12T07:07:09.063Z,7.97
2022-08-12T07:10:06.818Z,8.07
2022-08-12T07:12:28.208Z,7.40
2022-08-12T07:15:01.997Z,7.20
2022-08-12T07:17:36.278Z,6.68
2022-08-12T07:20:20.088Z,6.13
2022-08-12T07:22:59.631Z,5.63
2022-08-12T07:25:45.950Z,8.82
2022-08-12T07:28:24.996Z,5.22
2022-08-12T07:30:54.756Z,4.72
2022-08-12T07:33:28.742Z,10.20
2022-08-12T07:36:02.254Z,6.15
2022-08-12T07:38:38.380Z,9.15
2022-08-12T07:41:23.181Z,8.98
2022-08-12T07:43:59.103Z,8.63
2022-08-12T07:46:38.997Z,7.28
2022-08-12T07:49:13.937Z,7.05
2022-08-12T07:51:43.661Z,6.70
2022-08-12T07:54:13.031Z,6.32
2022-08-12T07:56:42.679Z,8.00
2022-08-12T07:59:10.296Z,8.23
2022-08-12T08:01:38.386Z,5.70
2022-08-12T08:04:25.781Z,8.50
2022-08-12T08:06:54.263Z,11.80
2022-08-12T08:09:24.110Z,5.63
2022-08-12T08:12:19.223Z,8.80
2022-08-12T08:14:49.930Z,10.25
2022-08-12T08:17:18.911Z,11.68
2022-08-12T08:20:03.081Z,9.20
2022-08-12T08:22:50.318Z,7.05
2022-08-12T08:25:35.683Z,5.90
2022-08-12T08:28:09.446Z,6.18
2022-08-12T08:30:43.940Z,8.18
2022-08-12T08:33:23.139Z,8.65
2022-08-12T08:35:56.593Z,8.45
2022-08-12T08:38:32.895Z,5.47
2022-08-12T08:42:15.897Z,5.32
2022-08-12T08:44:12.323Z,6.78
2022-08-12T08:46:44.560Z,4.35
2022-08-12T08:49:13.223Z,5.63
2022-08-12T08:51:40.702Z,18.67
2022-08-12T08:54:12.722Z,7.97
2022-08-12T08:56:44.033Z,4.20
2022-08-12T08:59:13.370Z,4.03
2022-08-12T09:01:44.455Z,4.75
2022-08-12T09:05:08.784Z,4.93
2022-08-12T09:07:16.718Z,3.80
2022-08-12T09:10:02.486Z,4.13
2022-08-12T09:18:33.131Z,7.05
2022-08-12T09:21:02.177Z,4.28
2022-08-12T09:26:19.231Z,6.10
2022-08-12T09:32:03.866Z,5.63
2022-08-12T09:34:29.553Z,5.18
2022-08-12T09:37:02.311Z,6.95
2022-08-12T09:40:05.844Z,4.40
2022-08-12T09:42:55.429Z,5.60
2022-08-12T09:46:06.607Z,4.55
2022-08-12T09:48:20.352Z,6.88
2022-08-12T09:50:52.171Z,4.22
2022-08-12T09:53:29.498Z,6.38
2022-08-12T09:56:59.903Z,3.40
2022-08-12T09:59:00.582Z,5.80
2022-08-12T10:01:35.042Z,3.90
2022-08-12T10:04:19.092Z,3.50
2022-08-12T10:06:54.717Z,5.25
2022-08-12T10:09:28.425Z,4.82
2022-08-12T10:12:41.688Z,4.53
2022-08-12T10:15:08.147Z,5.50
2022-08-12T10:18:06.240Z,3.50
2022-08-12T10:20:29.717Z,3.92
2022-08-12T10:23:01.829Z,3.53
2022-08-12T10:26:35.212Z,4.25
2022-08-12T10:29:02.745Z,5.53
2022-08-12T10:31:47.065Z,3.42
2022-08-12T10:34:26.507Z,4.68
2022-08-12T10:37:15.643Z,4.13
2022-08-12T10:40:01.480Z,4.43
2022-08-12T10:43:00.688Z,3.45
2022-08-12T10:45:30.385Z,4.22
2022-08-12T10:48:15.887Z,3.85
2022-08-12T10:51:01.998Z,3.78
2022-08-12T10:53:45.504Z,4.93
2022-08-12T10:56:16.164Z,4.75
2022-08-12T10:58:46.146Z,3.72
2022-08-12T11:01:49.880Z,5.45
2022-08-12T11:07:10.201Z,3.90
2022-08-12T11:09:59.910Z,5.90
2022-08-12T11:12:55.297Z,5.82
2022-08-12T11:15:32.801Z,4.97
2022-08-12T11:18:18.608Z,4.68
2022-08-12T11:20:48.745Z,3.13
2022-08-12T11:23:25.555Z,4.68
2022-08-12T11:26:08.440Z,5.23
2022-08-12T11:28:38.259Z,5.78
2022-08-12T11:31:09.946Z,5.18
2022-08-12T11:34:05.857Z,10.90
2022-08-12T11:36:28.725Z,6.97
2022-08-12T11:38:57.616Z,4.00
2022-08-12T11:41:31.842Z,4.85
2022-08-12T11:44:31.991Z,5.20
2022-08-12T11:46:54.701Z,6.05
2022-08-12T11:49:32.373Z,2.75
2022-08-12T11:52:04.493Z,2.80
2022-08-12T11:54:51.935Z,3.55
2022-08-12T11:58:08.162Z,4.05
2022-08-12T12:02:55.410Z,5.45
2022-08-12T12:05:22.831Z,2.90
2022-08-12T12:08:40.523Z,7.82
2022-08-12T12:10:43.454Z,4.78
2022-08-12T12:13:23.293Z,5.28
2022-08-12T12:16:00.925Z,6.15
2022-08-12T12:18:35.055Z,5.43
2022-08-12T12:21:08.334Z,6.97
2022-08-12T12:23:36.575Z,4.72
2022-08-12T12:26:08.345Z,4.38
2022-08-12T12:28:39.716Z,6.05
2022-08-12T12:33:57.883Z,4.93
2022-08-12T12:36:30.271Z,4.80
2022-08-12T12:39:00.065Z,6.35
2022-08-12T12:42:41.605Z,4.38
2022-08-12T12:44:30.159Z,4.93
2022-08-12T12:47:04.478Z,5.20
2022-08-12T12:49:53.772Z,4.70
2022-08-12T12:52:21.459Z,5.57
2022-08-12T12:54:55.657Z,3.88
2022-08-12T12:57:59.126Z,4.15
2022-08-12T13:00:17.440Z,4.63
2022-08-12T13:02:54.036Z,3.45
2022-08-12T13:05:30.486Z,3.50
2022-08-12T13:08:28.042Z,4.25
2022-08-12T13:11:01.823Z,6.00
2022-08-12T13:14:09.814Z,5.85
2022-08-12T13:16:21.679Z,4.05
2022-08-12T13:18:53.867Z,5.83
2022-08-12T13:21:33.429Z,3.83
2022-08-12T13:24:09.631Z,4.43
2022-08-12T13:26:40.217Z,3.70
2022-08-12T13:29:11.208Z,6.35
2022-08-12T13:32:17.568Z,4.72
2022-08-12T13:34:34.838Z,3.95
2022-08-12T13:37:09.911Z,5.95
2022-08-12T13:39:39.184Z,2.85
2022-08-12T13:42:14.459Z,5.87
2022-08-12T13:44:42.635Z,5.50
2022-08-12T13:47:19.630Z,3.05
2022-08-12T13:49:55.169Z,4.72
2022-08-12T13:52:24.314Z,2.80
2022-08-12T13:54:55.145Z,4.10
2022-08-12T13:57:26.514Z,6.80
2022-08-12T14:00:00.347Z,3.63
2022-08-12T14:02:28.077Z,4.90
2022-08-12T14:04:56.717Z,3.40
2022-08-12T14:07:26.242Z,12.52
2022-08-12T14:10:16.267Z,6.63
2022-08-12T14:12:54.788Z,9.38
2022-08-12T14:15:36.737Z,8.40
2022-08-12T14:18:14.859Z,5.00
2022-08-12T14:20:49.215Z,8.20
2022-08-12T14:24:04.473Z,3.55
2022-08-12T14:26:17.074Z,3.67
2022-08-12T14:28:57.520Z,4.63
2022-08-12T14:31:31.366Z,3.28
2022-08-12T14:33:59.918Z,4.43
2022-08-12T14:36:27.490Z,3.92
2022-08-12T14:38:56.063Z,5.05
2022-08-12T14:41:36.877Z,2.85
2022-08-12T14:45:01.156Z,3.13
2022-08-12T14:47:06.088Z,5.45
2022-08-12T14:50:37.368Z,3.50
2022-08-12T14:53:13.534Z,7.60
2022-08-12T14:58:02.492Z,7.35
2022-08-12T15:00:52.207Z,3.22
2022-08-12T15:03:52.178Z,8.45
2022-08-12T15:06:38.991Z,5.95
2022-08-12T15:09:06.556Z,6.50
2022-08-12T15:11:54.399Z,3.17
2022-08-12T15:14:21.716Z,5.03
2022-08-12T15:16:51.145Z,5.68
2022-08-12T15:20:11.648Z,5.18
2022-08-12T15:22:37.831Z,3.10
2022-08-12T15:24:53.504Z,3.67
2022-08-12T15:27:22.338Z,4.82
2022-08-12T15:30:09.871Z,4.60
2022-08-12T15:32:37.695Z,4.22
2022-08-12T15:35:12.156Z,5.22
2022-08-12T15:38:09.250Z,4.35
2022-08-12T15:40:33.510Z,3.22
2022-08-12T15:43:04.763Z,4.88
2022-08-12T15:45:41.861Z,3.10
2022-08-12T15:48:16.866Z,3.03
2022-08-12T15:50:48.029Z,4.88
2022-08-12T15:53:40.823Z,2.97
2022-08-12T15:56:12.622Z,4.32
2022-08-12T15:58:41.563Z,4.90
2022-08-12T16:01:15.529Z,4.55
2022-08-12T16:04:00.125Z,4.60
2022-08-12T16:06:50.868Z,5.40
2022-08-12T16:09:21.548Z,3.80
2022-08-12T16:12:03.334Z,6.20
2022-08-12T16:14:33.144Z,3.53
2022-08-12T16:17:02.458Z,6.50
2022-08-12T16:20:03.921Z,2.83
2022-08-12T16:22:19.160Z,3.97
2022-08-12T16:24:47.172Z,6.03
2022-08-12T16:27:19.387Z,4.90
2022-08-12T16:29:57.430Z,3.85
2022-08-12T16:32:31.727Z,6.55
2022-08-12T16:35:00.825Z,5.25
2022-08-12T16:37:32.479Z,8.38
2022-08-12T16:40:18.767Z,5.13
2022-08-12T16:42:54.077Z,8.05
2022-08-12T16:46:04.378Z,5.20
2022-08-12T16:48:33.833Z,5.43
2022-08-12T16:51:09.481Z,5.22
2022-08-12T16:53:44.276Z,5.43
2022-08-12T16:56:15.310Z,6.38
2022-08-12T17:01:14.470Z,5.68
2022-08-12T17:03:47.091Z,4.95
2022-08-12T17:06:27.663Z,4.97
2022-08-12T17:09:08.382Z,6.43
2022-08-12T17:11:44.246Z,6.65
2022-08-12T17:14:11.743Z,7.45
2022-08-12T17:16:40.920Z,4.85
2022-08-12T17:19:09.107Z,7.40
2022-08-12T17:21:41.832Z,4.22
2022-08-12T17:24:30.580Z,5.82
2022-08-12T17:27:15.778Z,5.72
2022-08-12T17:30:02.987Z,6.03
2022-08-12T17:32:36.807Z,5.47
2022-08-12T17:35:30.145Z,6.60
2022-08-12T17:38:11.597Z,6.80
2022-08-12T17:40:41.108Z,6.05
2022-08-12T17:43:57.196Z,10.40
2022-08-12T17:46:00.090Z,4.60
2022-08-12T17:48:34.690Z,6.22
2022-08-12T17:51:15.728Z,4.75
2022-08-12T17:54:11.158Z,7.07
2022-08-12T17:56:37.400Z,5.33
2022-08-12T17:59:12.389Z,5.68
2022-08-12T18:01:45.510Z,4.40
2022-08-12T18:04:22.707Z,4.15
2022-08-12T18:07:03.482Z,7.97
2022-08-12T18:09:36.869Z,5.43
2022-08-12T18:12:35.487Z,5.82
2022-08-12T18:15:10.493Z,8.32
2022-08-12T18:18:00.125Z,4.88
2022-08-12T18:20:29.770Z,4.63
2022-08-12T18:23:01.350Z,7.70
2022-08-12T18:26:15.389Z,4.88
2022-08-12T18:28:43.134Z,6.10
2022-08-12T18:31:19.152Z,6.55
2022-08-12T18:33:52.533Z,4.25
2022-08-12T18:36:22.589Z,5.53
2022-08-12T18:38:56.209Z,6.55
2022-08-12T18:41:34.252Z,4.13
2022-08-12T18:44:11.534Z,5.30
2022-08-12T18:46:53.797Z,4.43
2022-08-12T18:49:38.721Z,4.70
2022-08-12T18:52:11.384Z,7.18
2022-08-12T18:54:53.283Z,4.65
2022-08-12T18:58:05.806Z,4.93
2022-08-12T19:00:21.557Z,4.50
2022-08-12T19:02:53.464Z,5.68
2022-08-12T19:05:23.445Z,5.70
2022-08-12T19:08:11.517Z,5.33
2022-08-12T19:10:50.665Z,6.10
2022-08-12T19:13:39.510Z,4.32
2022-08-12T19:16:12.646Z,6.47
2022-08-12T19:18:44.778Z,4.15
2022-08-12T19:21:15.982Z,6.10
2022-08-12T19:24:05.086Z,4.65
2022-08-12T19:26:35.157Z,7.75
2022-08-12T19:29:05.380Z,5.43
2022-08-12T19:31:58.284Z,5.90
2022-08-12T19:35:54.011Z,9.13
2022-08-12T19:38:06.367Z,7.50
2022-08-12T19:40:34.739Z,9.60
2022-08-12T19:43:19.337Z,6.22
2022-08-12T19:45:56.586Z,7.70
2022-08-12T19:48:28.023Z,6.28
2022-08-12T19:50:59.443Z,9.23
2022-08-12T19:53:56.594Z,6.95
2022-08-12T19:56:25.163Z,7.65
2022-08-12T19:58:53.909Z,8.18
2022-08-12T20:01:21.629Z,9.00
2022-08-12T20:03:57.424Z,7.20
2022-08-12T20:06:29.255Z,10.10
2022-08-12T20:08:59.688Z,5.75
2022-08-12T20:12:14.725Z,6.07
2022-08-12T20:14:19.678Z,6.00
2022-08-12T20:16:57.243Z,6.97
2022-08-12T20:19:52.501Z,9.15
2022-08-12T20:22:24.048Z,6.82
2022-08-12T20:25:07.420Z,8.88
2022-08-12T20:28:05.656Z,5.95
2022-08-12T20:30:37.202Z,7.88
2022-08-12T20:33:17.808Z,7.50
2022-08-12T20:36:13.143Z,9.38
2022-08-12T20:38:39.764Z,7.63
2022-08-12T20:41:16.448Z,7.57
2022-08-12T20:43:55.019Z,7.35
2022-08-12T20:46:31.606Z,8.18
2022-08-12T20:49:14.483Z,6.30
2022-08-12T20:51:55.098Z,8.57
2022-08-12T20:54:32.312Z,8.50
2022-08-12T20:57:10.218Z,7.47
2022-08-12T20:59:47.638Z,9.27
2022-08-12T21:02:16.261Z,8.63
2022-08-12T21:05:02.125Z,14.98
2022-08-12T21:07:51.572Z,10.43
2022-08-12T21:10:20.644Z,10.70
2022-08-12T21:12:50.899Z,9.30
2022-08-12T21:15:30.190Z,9.40
2022-08-12T21:18:11.821Z,8.95
2022-08-12T21:20:54.231Z,8.50
2022-08-12T21:23:23.280Z,10.63
2022-08-12T21:25:56.803Z,10.77
2022-08-12T21:28:31.921Z,10.63
2022-08-12T21:34:07.147Z,11.63
2022-08-12T21:36:48.201Z,8.27
2022-08-12T21:39:35.154Z,9.93
2022-08-12T21:42:06.920Z,8.68
2022-08-12T21:45:48.177Z,13.88
2022-08-12T21:50:03.285Z,9.73
2022-08-12T21:52:35.649Z,9.23
2022-08-12T21:55:18.056Z,19.33
2022-08-12T21:57:54.366Z,9.98
2022-08-12T22:00:32.382Z,14.88
2022-08-12T22:04:04.218Z,12.48
2022-08-12T22:06:31.807Z,11.75
2022-08-12T22:09:16.492Z,16.55
2022-08-12T22:11:56.467Z,32.67
2022-08-12T22:14:30.621Z,29.75
2022-08-12T22:17:00.623Z,29.55
2022-08-12T22:19:28.667Z,23.05
2022-08-12T22:21:56.874Z,23.48
2022-08-12T22:24:30.046Z,21.38
2022-08-12T22:27:31.254Z,22.25
2022-08-12T22:30:16.439Z,34.15
2022-08-12T22:32:50.501Z,27.30
2022-08-12T22:35:47.682Z,19.67
2022-08-12T22:38:23.950Z,28.92
2022-08-12T22:41:01.823Z,30.27
2022-08-12T22:44:00.522Z,31.33
2022-08-12T22:46:38.854Z,37.50
2022-08-12T22:49:06.542Z,30.50
2022-08-12T22:52:03.098Z,35.58
2022-08-12T22:54:36.012Z,29.10
2022-08-12T22:57:11.965Z,33.35
2022-08-12T22:59:55.139Z,31.05
2022-08-12T23:02:28.758Z,38.03
2022-08-12T23:04:58.469Z,35.25
2022-08-12T23:07:26.013Z,35.67
2022-08-12T23:09:54.817Z,37.00
2022-08-12T23:12:46.770Z,39.67
2022-08-12T23:15:14.734Z,38.75
2022-08-12T23:17:43.540Z,35.70
2022-08-12T23:20:15.082Z,32.45
2022-08-12T23:23:02.736Z,36.83
2022-08-12T23:25:54.208Z,29.40
2022-08-12T23:28:37.556Z,28.17
2022-08-12T23:31:06.576Z,27.33
2022-08-12T23:34:01.432Z,24.10
2022-08-12T23:36:31.666Z,23.95
2022-08-12T23:40:13.283Z,21.63
2022-08-12T23:42:16.592Z,19.35
2022-08-12T23:44:48.366Z,20.70
2022-08-12T23:47:21.494Z,26.25
2022-08-12T23:49:57.183Z,19.58
2022-08-12T23:52:28.626Z,24.58
2022-08-12T23:55:25.150Z,28.35
2022-08-12T23:58:21.825Z,29.08
